createdAt,value
2018-07-04T00:02:31.101Z,3.17
2018-07-04T00:05:10.716Z,6.05
2018-07-04T00:07:50.212Z,6.65
2018-07-04T00:10:29.767Z,4.35
2018-07-04T00:13:09.473Z,4.42
2018-07-04T00:15:48.993Z,7.87
2018-07-04T00:18:28.626Z,5.50
2018-07-04T00:21:08.248Z,6.50
2018-07-04T00:23:47.805Z,6.90
2018-07-04T00:26:27.457Z,10.40
2018-07-04T00:29:06.956Z,6.83
2018-07-04T00:31:46.617Z,3.72
2018-07-04T00:34:26.271Z,5.70
2018-07-04T00:37:05.818Z,5.55
2018-07-04T00:39:45.391Z,5.95
2018-07-04T00:42:24.976Z,4.03
2018-07-04T00:45:04.644Z,4.47
2018-07-04T00:47:44.175Z,3.60
2018-07-04T00:50:23.828Z,4.65
2018-07-04T00:53:03.464Z,5.60
2018-07-04T00:55:42.984Z,5.95
2018-07-04T00:58:22.596Z,6.17
2018-07-04T01:01:02.208Z,14.43
2018-07-04T01:03:41.623Z,5.22
2018-07-04T01:06:21.220Z,3.25
2018-07-04T01:09:00.803Z,3.25
2018-07-04T01:11:40.332Z,11.15
2018-07-04T01:14:19.916Z,5.80
2018-07-04T01:16:59.568Z,10.50
2018-07-04T01:19:39.153Z,10.38
2018-07-04T01:22:18.668Z,7.37
2018-07-04T01:24:58.146Z,6.17
2018-07-04T01:27:37.656Z,22.42
2018-07-04T01:30:17.331Z,5.15
2018-07-04T01:32:56.815Z,4.45
2018-07-04T01:35:36.378Z,4.83
2018-07-04T01:38:15.926Z,4.40
2018-07-04T01:40:55.511Z,13.18
2018-07-04T01:43:35.147Z,5.47
2018-07-04T01:46:14.784Z,5.85
2018-07-04T01:48:54.384Z,4.62
2018-07-04T01:51:33.924Z,3.85
2018-07-04T01:54:13.451Z,4.72
2018-07-04T01:56:53.307Z,10.30
2018-07-04T01:59:32.688Z,6.75
2018-07-04T02:02:12.265Z,5.42
2018-07-04T02:04:51.859Z,4.37
2018-07-04T02:07:31.548Z,6.80
2018-07-04T02:10:11.145Z,3.02
2018-07-04T02:12:50.580Z,16.93
2018-07-04T02:15:30.240Z,9.43
2018-07-04T02:18:09.746Z,6.65
2018-07-04T02:20:49.285Z,7.47
2018-07-04T02:23:28.924Z,5.25
2018-07-04T02:26:08.544Z,4.80
2018-07-04T02:28:48.097Z,8.73
2018-07-04T02:31:27.757Z,4.20
2018-07-04T02:34:07.160Z,5.50
2018-07-04T02:36:46.701Z,5.08
2018-07-04T02:39:26.340Z,3.62
2018-07-04T02:42:05.983Z,3.00
2018-07-04T02:44:45.520Z,9.93
2018-07-04T02:47:27.648Z,5.35
2018-07-04T02:50:07.790Z,3.65
2018-07-04T02:52:47.757Z,3.72
2018-07-04T02:55:27.371Z,4.58
2018-07-04T02:58:07.987Z,4.33
2018-07-04T03:00:47.311Z,4.25
2018-07-04T03:03:27.103Z,5.15
2018-07-04T03:06:06.605Z,7.42
2018-07-04T03:08:46.064Z,3.50
2018-07-04T03:11:25.528Z,4.20
2018-07-04T03:14:05.028Z,5.37
2018-07-04T03:16:44.623Z,4.28
2018-07-04T03:19:23.999Z,4.50
2018-07-04T03:22:03.409Z,4.17
2018-07-04T03:24:43.000Z,6.53
2018-07-04T03:27:22.514Z,6.10
2018-07-04T03:30:01.999Z,2.72
2018-07-04T03:32:41.543Z,3.98
2018-07-04T03:35:21.052Z,5.80
2018-07-04T03:38:00.691Z,4.28
2018-07-04T03:40:40.112Z,5.30
2018-07-04T03:43:19.660Z,3.95
2018-07-04T03:45:59.217Z,5.22
2018-07-04T03:48:38.868Z,7.97
2018-07-04T03:51:18.500Z,7.40
2018-07-04T03:53:57.928Z,5.58
2018-07-04T03:56:37.405Z,8.00
2018-07-04T03:59:16.922Z,4.65
2018-07-04T04:01:56.353Z,3.27
2018-07-04T04:04:35.862Z,5.25
2018-07-04T04:07:15.504Z,6.70
2018-07-04T04:09:54.897Z,5.00
2018-07-04T04:12:34.392Z,5.50
2018-07-04T04:15:13.872Z,5.17
2018-07-04T04:17:53.204Z,3.90
2018-07-04T04:20:32.596Z,5.78
2018-07-04T04:23:12.037Z,4.53
2018-07-04T04:25:51.540Z,4.92
2018-07-04T04:28:31.065Z,5.87
2018-07-04T04:31:10.552Z,4.17
2018-07-04T04:33:50.127Z,3.20
2018-07-04T04:36:29.625Z,4.35
2018-07-04T04:39:09.272Z,5.10
2018-07-04T04:41:48.809Z,3.42
2018-07-04T04:44:28.452Z,6.58
2018-07-04T04:47:07.988Z,10.70
2018-07-04T04:49:47.524Z,5.97
2018-07-04T04:52:27.000Z,13.08
2018-07-04T04:55:06.495Z,6.05
2018-07-04T04:57:45.928Z,5.87
2018-07-04T05:00:25.479Z,5.70
2018-07-04T05:03:04.900Z,4.87
2018-07-04T05:05:44.353Z,5.20
2018-07-04T05:08:23.977Z,7.00
2018-07-04T05:11:03.633Z,4.40
2018-07-04T05:13:43.231Z,6.45
2018-07-04T05:16:22.800Z,5.45
2018-07-04T05:19:02.424Z,5.60
2018-07-04T05:21:41.855Z,6.62
2018-07-04T05:24:21.483Z,6.05
2018-07-04T05:27:01.093Z,5.92
2018-07-04T05:29:40.642Z,4.17
2018-07-04T05:32:20.236Z,8.78
2018-07-04T05:34:59.570Z,7.45
2018-07-04T05:37:39.195Z,7.33
2018-07-04T05:40:18.880Z,7.58
2018-07-04T05:42:58.352Z,5.87
2018-07-04T05:45:37.953Z,7.85
2018-07-04T05:48:17.559Z,7.20
2018-07-04T05:50:57.129Z,6.47
2018-07-04T05:53:36.712Z,17.00
2018-07-04T05:56:16.341Z,6.72
2018-07-04T05:58:55.949Z,10.05
2018-07-04T06:01:35.612Z,10.08
2018-07-04T06:04:15.198Z,8.25
2018-07-04T06:06:54.993Z,3.85
2018-07-04T06:09:34.384Z,6.67
2018-07-04T06:12:13.974Z,4.17
2018-07-04T06:14:53.610Z,6.15
2018-07-04T06:17:33.232Z,15.98
2018-07-04T06:20:12.728Z,8.20
2018-07-04T06:22:52.822Z,4.58
2018-07-04T06:25:32.407Z,4.17
2018-07-04T06:28:12.069Z,3.17
2018-07-04T06:30:51.632Z,3.92
2018-07-04T06:33:31.291Z,9.18
2018-07-04T06:36:10.796Z,4.80
2018-07-04T06:38:37.859Z,8.40
2018-07-04T06:41:04.927Z,5.15
2018-07-04T06:43:31.995Z,5.03
2018-07-04T06:45:59.088Z,8.43
2018-07-04T06:48:26.249Z,4.67
2018-07-04T06:50:53.326Z,8.23
2018-07-04T06:53:20.414Z,5.22
2018-07-04T06:55:47.480Z,6.55
2018-07-04T06:58:14.552Z,7.60
2018-07-04T07:00:41.620Z,5.20
2018-07-04T07:03:21.008Z,5.45
2018-07-04T07:06:00.556Z,4.95
2018-07-04T07:08:40.278Z,4.15
2018-07-04T07:11:19.684Z,6.97
2018-07-04T07:13:59.278Z,10.08
2018-07-04T07:16:38.904Z,10.15
2018-07-04T07:19:18.885Z,7.80
2018-07-04T07:21:58.224Z,7.30
2018-07-04T07:24:37.680Z,9.78
2018-07-04T07:27:17.077Z,7.37
2018-07-04T07:29:56.623Z,7.58
2018-07-04T07:32:36.158Z,9.43
2018-07-04T07:35:15.792Z,9.50
2018-07-04T07:37:55.279Z,13.58
2018-07-04T07:40:34.749Z,14.90
2018-07-04T07:43:14.230Z,11.88
2018-07-04T07:45:53.632Z,10.45
2018-07-04T07:48:33.260Z,11.30
2018-07-04T07:51:12.880Z,16.40
2018-07-04T07:53:52.586Z,14.07
2018-07-04T07:56:32.196Z,10.32
2018-07-04T07:59:11.894Z,10.00
2018-07-04T08:01:51.428Z,11.55
2018-07-04T08:04:30.892Z,13.68
2018-07-04T08:07:10.364Z,16.80
2018-07-04T08:09:50.000Z,11.28
2018-07-04T08:12:29.584Z,15.90
2018-07-04T08:15:09.169Z,25.08
2018-07-04T08:17:48.637Z,19.23
2018-07-04T08:20:28.164Z,20.27
2018-07-04T08:23:07.668Z,18.62
2018-07-04T08:25:47.237Z,20.62
2018-07-04T08:28:26.623Z,27.45
2018-07-04T08:31:06.334Z,20.32
2018-07-04T08:33:45.949Z,22.93
2018-07-04T08:36:25.490Z,17.00
2018-07-04T08:39:04.962Z,24.35
2018-07-04T08:41:44.472Z,21.40
2018-07-04T08:44:24.079Z,18.02
2018-07-04T08:47:03.660Z,23.05
2018-07-04T08:49:43.228Z,18.82
2018-07-04T08:52:22.708Z,19.90
2018-07-04T08:55:02.163Z,23.40
2018-07-04T08:57:41.721Z,26.37
2018-07-04T09:00:21.224Z,17.60
2018-07-04T09:03:00.672Z,19.77
2018-07-04T09:05:40.356Z,22.02
2018-07-04T09:08:19.775Z,23.67
2018-07-04T09:10:59.083Z,32.15
2018-07-04T09:13:38.512Z,28.10
2018-07-04T09:16:18.009Z,26.97
2018-07-04T09:18:57.637Z,25.97
2018-07-04T09:21:37.239Z,21.00
2018-07-04T09:24:16.868Z,21.35
2018-07-04T09:26:56.206Z,23.25
2018-07-04T09:29:35.720Z,29.55
2018-07-04T09:32:15.125Z,42.93
2018-07-04T09:34:54.642Z,34.15
2018-07-04T09:37:34.193Z,32.38
2018-07-04T09:40:13.765Z,23.83
2018-07-04T09:42:53.088Z,27.00
2018-07-04T09:45:32.560Z,35.75
2018-07-04T09:48:12.080Z,33.13
2018-07-04T09:50:51.669Z,33.92
2018-07-04T09:53:31.164Z,46.30
2018-07-04T09:56:10.844Z,40.95
2018-07-04T09:58:50.465Z,35.43
2018-07-04T10:01:30.005Z,57.58
2018-07-04T10:04:09.404Z,53.38
2018-07-04T10:06:49.080Z,58.23
2018-07-04T10:09:28.736Z,56.53
2018-07-04T10:12:08.208Z,54.88
2018-07-04T10:14:47.912Z,63.05
2018-07-04T10:17:27.361Z,47.45
2018-07-04T10:20:06.980Z,36.35
2018-07-04T10:22:46.487Z,65.60
2018-07-04T10:25:26.000Z,46.05
2018-07-04T10:28:05.500Z,32.75
2018-07-04T10:30:44.985Z,40.03
2018-07-04T10:33:24.580Z,53.92
2018-07-04T10:36:04.096Z,50.70
2018-07-04T10:38:43.658Z,58.45
2018-07-04T10:41:23.118Z,65.08
2018-07-04T10:44:02.644Z,67.17
2018-07-04T10:46:42.178Z,57.40
2018-07-04T10:49:21.806Z,87.97
2018-07-04T10:52:01.580Z,88.62
2018-07-04T10:54:41.176Z,102.27
2018-07-04T10:57:20.840Z,81.92
2018-07-04T11:00:00.257Z,96.55
2018-07-04T11:02:39.884Z,95.10
2018-07-04T11:05:19.468Z,98.93
2018-07-04T11:07:59.043Z,111.10
2018-07-04T11:10:38.547Z,101.73
2018-07-04T11:13:18.105Z,88.17
2018-07-04T11:15:57.602Z,100.20
2018-07-04T11:18:37.183Z,132.87
2018-07-04T11:21:16.703Z,121.37
2018-07-04T11:23:56.164Z,102.27
2018-07-04T11:26:35.691Z,102.97
2018-07-04T11:29:15.188Z,112.20
2018-07-04T11:31:54.622Z,107.20
2018-07-04T11:34:34.242Z,88.73
2018-07-04T11:37:13.622Z,90.30
2018-07-04T11:39:53.127Z,92.63
2018-07-04T11:42:32.640Z,84.83
2018-07-04T11:45:12.228Z,107.53
2018-07-04T11:47:39.309Z,89.53
2018-07-04T11:50:06.389Z,68.17
2018-07-04T11:52:33.481Z,92.47
2018-07-04T11:55:00.751Z,90.63
2018-07-04T11:57:27.852Z,83.30
2018-07-04T11:59:54.942Z,95.63
2018-07-04T12:02:22.032Z,127.00
2018-07-04T12:05:01.526Z,97.80
2018-07-04T12:07:28.603Z,106.17
2018-07-04T12:09:55.692Z,95.70
2018-07-04T12:12:22.769Z,77.63
2018-07-04T12:14:49.882Z,75.23
2018-07-04T12:17:16.952Z,89.27
2018-07-04T12:19:44.038Z,90.57
2018-07-04T12:22:11.121Z,106.53
2018-07-04T12:24:38.204Z,69.60
2018-07-04T12:27:05.277Z,79.13
2018-07-04T12:29:32.393Z,101.80
2018-07-04T12:31:59.499Z,84.73
2018-07-04T12:34:26.544Z,87.53
2018-07-04T12:36:53.625Z,100.67
2018-07-04T12:39:20.700Z,100.57
2018-07-04T12:41:47.788Z,91.77
2018-07-04T12:44:14.863Z,109.13
2018-07-04T12:46:41.954Z,81.60
2018-07-04T12:49:09.036Z,107.90
2018-07-04T12:51:36.118Z,133.50
2018-07-04T12:54:08.811Z,120.50
2018-07-04T12:56:48.106Z,121.47
2018-07-04T12:59:27.581Z,92.60
2018-07-04T13:02:07.076Z,91.83
2018-07-04T13:04:46.700Z,121.23
2018-07-04T13:07:26.403Z,77.13
2018-07-04T13:10:05.853Z,100.20
2018-07-04T13:12:45.316Z,127.03
2018-07-04T13:15:24.907Z,113.40
2018-07-04T13:18:04.527Z,90.70
2018-07-04T13:20:44.055Z,93.83
2018-07-04T13:23:23.700Z,94.00
2018-07-04T13:26:03.241Z,128.23
2018-07-04T13:28:42.784Z,85.40
2018-07-04T13:31:22.392Z,96.97
2018-07-04T13:34:02.049Z,113.83
2018-07-04T13:36:41.494Z,128.53
2018-07-04T13:39:21.032Z,139.57
2018-07-04T13:42:00.518Z,124.13
2018-07-04T13:44:39.890Z,96.50
2018-07-04T13:47:19.454Z,120.67
2018-07-04T13:49:58.896Z,125.37
2018-07-04T13:52:38.521Z,124.07
2018-07-04T13:55:18.098Z,93.30
2018-07-04T13:57:57.619Z,93.40
2018-07-04T14:00:37.236Z,93.30
2018-07-04T14:03:16.867Z,83.70
2018-07-04T14:05:56.328Z,123.73
2018-07-04T14:08:35.940Z,84.40
2018-07-04T14:11:15.585Z,89.20
2018-07-04T14:13:55.252Z,58.20
2018-07-04T14:16:35.722Z,88.20
2018-07-04T14:19:15.316Z,92.27
2018-07-04T14:21:54.897Z,92.13
2018-07-04T14:24:34.504Z,76.73
2018-07-04T14:27:14.071Z,99.07
2018-07-04T14:29:53.639Z,98.10
2018-07-04T14:32:33.328Z,97.23
2018-07-04T14:35:12.960Z,94.50
2018-07-04T14:37:52.514Z,83.20
2018-07-04T14:40:32.110Z,79.73
2018-07-04T14:43:11.597Z,88.17
2018-07-04T14:45:51.117Z,98.57
2018-07-04T14:48:30.576Z,73.30
2018-07-04T14:51:10.129Z,67.33
2018-07-04T14:53:49.766Z,68.93
2018-07-04T14:56:29.370Z,63.27
2018-07-04T14:59:08.794Z,74.70
2018-07-04T15:01:48.143Z,96.07
2018-07-04T15:04:27.929Z,119.43
2018-07-04T15:07:07.395Z,115.73
2018-07-04T15:09:47.059Z,106.60
2018-07-04T15:12:26.753Z,99.63
2018-07-04T15:15:06.174Z,83.93
2018-07-04T15:17:45.812Z,97.20
2018-07-04T15:20:25.456Z,76.93
2018-07-04T15:23:04.944Z,80.43
2018-07-04T15:25:44.524Z,66.50
2018-07-04T15:28:23.894Z,81.17
2018-07-04T15:31:03.397Z,75.50
2018-07-04T15:33:42.942Z,80.13
2018-07-04T15:36:22.476Z,90.00
2018-07-04T15:39:02.088Z,89.37
2018-07-04T15:41:41.659Z,90.47
2018-07-04T15:44:21.295Z,112.67
2018-07-04T15:47:00.864Z,103.27
2018-07-04T15:49:40.277Z,102.13
2018-07-04T15:52:19.700Z,120.33
2018-07-04T15:54:59.252Z,86.80
2018-07-04T15:57:38.848Z,97.93
2018-07-04T16:00:18.431Z,71.20
2018-07-04T16:02:58.038Z,114.10
2018-07-04T16:05:37.772Z,67.45
2018-07-04T16:08:17.484Z,82.02
2018-07-04T16:10:57.107Z,73.33
2018-07-04T16:13:36.737Z,87.37
2018-07-04T16:16:16.293Z,78.42
2018-07-04T16:18:55.769Z,82.67
2018-07-04T16:21:35.468Z,59.93
2018-07-04T16:24:15.071Z,53.90
2018-07-04T16:26:54.600Z,62.08
2018-07-04T16:29:34.198Z,67.62
2018-07-04T16:32:13.657Z,61.00
2018-07-04T16:34:53.484Z,53.73
2018-07-04T16:37:33.142Z,39.13
2018-07-04T16:40:12.740Z,37.15
2018-07-04T16:42:52.385Z,52.50
2018-07-04T16:45:31.919Z,49.60
2018-07-04T16:48:11.493Z,43.20
2018-07-04T16:50:51.136Z,42.45
2018-07-04T16:53:30.628Z,30.50
2018-07-04T16:56:10.248Z,38.98
2018-07-04T16:58:49.743Z,50.90
2018-07-04T17:01:29.296Z,39.50
2018-07-04T17:04:08.774Z,38.58
2018-07-04T17:06:48.230Z,56.30
2018-07-04T17:09:27.827Z,43.58
2018-07-04T17:12:07.449Z,35.15
2018-07-04T17:14:47.028Z,36.48
2018-07-04T17:17:26.592Z,43.17
2018-07-04T17:20:06.560Z,26.27
2018-07-04T17:22:45.991Z,24.10
2018-07-04T17:25:25.502Z,34.35
2018-07-04T17:28:05.152Z,37.88
2018-07-04T17:30:44.628Z,31.35
2018-07-04T17:33:24.561Z,35.95
2018-07-04T17:36:03.943Z,32.40
2018-07-04T17:38:43.461Z,23.35
2018-07-04T17:41:23.141Z,24.05
2018-07-04T17:44:02.680Z,33.15
2018-07-04T17:46:42.218Z,24.75
2018-07-04T17:49:21.799Z,22.87
2018-07-04T17:52:01.128Z,31.02
2018-07-04T17:54:40.608Z,29.98
2018-07-04T17:57:20.106Z,37.45
2018-07-04T17:59:59.547Z,27.95
2018-07-04T18:02:38.936Z,32.17
2018-07-04T18:05:18.437Z,27.37
2018-07-04T18:07:57.965Z,33.75
2018-07-04T18:10:37.488Z,21.37
2018-07-04T18:13:17.137Z,19.62
2018-07-04T18:15:56.776Z,22.45
2018-07-04T18:18:36.287Z,20.35
2018-07-04T18:21:21.351Z,27.80
2018-07-04T18:24:00.989Z,29.65
2018-07-04T18:26:40.434Z,15.30
2018-07-04T18:29:20.138Z,16.27
2018-07-04T18:31:59.680Z,18.20
2018-07-04T18:34:39.138Z,18.90
2018-07-04T18:37:18.687Z,17.10
2018-07-04T18:39:58.201Z,24.35
2018-07-04T18:42:37.781Z,23.85
2018-07-04T18:45:17.356Z,17.27
2018-07-04T18:47:56.923Z,18.52
2018-07-04T18:50:36.663Z,30.72
2018-07-04T18:53:16.355Z,29.90
2018-07-04T18:55:56.584Z,24.95
2018-07-04T18:58:36.189Z,22.32
2018-07-04T19:01:16.296Z,26.02
2018-07-04T19:03:55.950Z,29.37
2018-07-04T19:06:35.503Z,34.40
2018-07-04T19:09:14.838Z,26.85
2018-07-04T19:11:54.236Z,13.65
2018-07-04T19:14:33.602Z,17.00
2018-07-04T19:17:12.944Z,16.90
2018-07-04T19:19:52.453Z,21.45
2018-07-04T19:22:32.005Z,14.73
2018-07-04T19:25:11.533Z,14.03
2018-07-04T19:27:51.108Z,13.32
2018-07-04T19:30:30.684Z,15.08
2018-07-04T19:33:09.989Z,12.25
2018-07-04T19:35:49.513Z,15.43
2018-07-04T19:38:28.948Z,13.32
2018-07-04T19:41:08.649Z,17.00
2018-07-04T19:43:48.277Z,14.07
2018-07-04T19:46:27.840Z,16.12
2018-07-04T19:49:07.365Z,13.28
2018-07-04T19:51:46.800Z,16.77
2018-07-04T19:54:26.336Z,16.02
2018-07-04T19:57:06.006Z,14.58
2018-07-04T19:59:45.656Z,13.28
2018-07-04T20:02:25.161Z,12.43
2018-07-04T20:05:04.763Z,10.70
2018-07-04T20:07:44.340Z,14.20
2018-07-04T20:10:23.980Z,11.90
2018-07-04T20:13:03.477Z,9.23
2018-07-04T20:15:42.968Z,9.83
2018-07-04T20:18:22.445Z,7.72
2018-07-04T20:21:01.989Z,15.65
2018-07-04T20:23:41.633Z,9.38
2018-07-04T20:26:21.185Z,10.58
2018-07-04T20:29:00.789Z,7.87
2018-07-04T20:31:40.296Z,6.30
2018-07-04T20:34:19.887Z,8.55
2018-07-04T20:36:59.497Z,6.40
2018-07-04T20:39:39.007Z,7.85
2018-07-04T20:42:18.569Z,6.87
2018-07-04T20:44:58.067Z,7.60
2018-07-04T20:47:37.544Z,7.50
2018-07-04T20:50:17.720Z,11.95
2018-07-04T20:52:57.435Z,11.22
2018-07-04T20:55:37.148Z,5.03
2018-07-04T20:58:16.701Z,6.35
2018-07-04T21:00:56.305Z,8.10
2018-07-04T21:03:35.972Z,9.55
2018-07-04T21:06:15.629Z,6.42
2018-07-04T21:08:55.255Z,9.10
2018-07-04T21:11:34.917Z,11.85
2018-07-04T21:14:14.556Z,11.73
2018-07-04T21:16:54.236Z,7.67
2018-07-04T21:19:33.924Z,6.05
2018-07-04T21:22:13.576Z,7.67
2018-07-04T21:24:53.206Z,7.70
2018-07-04T21:27:32.700Z,6.12
2018-07-04T21:30:12.148Z,7.92
2018-07-04T21:32:51.712Z,6.67
2018-07-04T21:35:31.248Z,7.50
2018-07-04T21:38:10.820Z,6.75
2018-07-04T21:40:50.454Z,5.58
2018-07-04T21:43:29.948Z,5.47
2018-07-04T21:46:09.533Z,5.70
2018-07-04T21:48:48.959Z,5.33
2018-07-04T21:51:28.555Z,6.22
2018-07-04T21:54:08.009Z,6.00
2018-07-04T21:56:47.488Z,6.78
2018-07-04T21:59:26.938Z,7.72
2018-07-04T22:02:06.451Z,8.53
2018-07-04T22:04:45.892Z,5.50
2018-07-04T22:07:25.484Z,5.83
2018-07-04T22:10:05.168Z,6.78
2018-07-04T22:12:44.812Z,5.50
2018-07-04T22:15:24.349Z,5.15
2018-07-04T22:18:03.888Z,6.15
2018-07-04T22:20:43.410Z,5.85
2018-07-04T22:23:23.071Z,5.53
2018-07-04T22:26:02.708Z,5.85
2018-07-04T22:28:42.304Z,7.05
2018-07-04T22:31:21.860Z,9.65
2018-07-04T22:34:01.512Z,6.58
2018-07-04T22:36:41.067Z,9.60
2018-07-04T22:39:20.613Z,8.65
2018-07-04T22:42:00.172Z,8.40
2018-07-04T22:44:39.776Z,7.42
2018-07-04T22:47:19.428Z,7.67
2018-07-04T22:49:59.032Z,7.25
2018-07-04T22:52:38.681Z,6.47
2018-07-04T22:55:18.183Z,6.33
2018-07-04T22:57:57.640Z,6.67
2018-07-04T23:00:37.136Z,5.25
2018-07-04T23:03:16.552Z,4.97
2018-07-04T23:05:56.114Z,5.00
2018-07-04T23:08:35.615Z,5.28
2018-07-04T23:11:15.240Z,4.30
2018-07-04T23:13:54.865Z,5.00
2018-07-04T23:16:34.427Z,6.90
2018-07-04T23:19:13.868Z,5.95
2018-07-04T23:21:53.455Z,5.08
2018-07-04T23:24:33.072Z,4.28
2018-07-04T23:27:12.637Z,4.30
2018-07-04T23:29:52.179Z,5.65
2018-07-04T23:32:31.820Z,5.03
2018-07-04T23:35:11.335Z,3.30
2018-07-04T23:37:51.008Z,2.62
2018-07-04T23:40:30.516Z,3.72
2018-07-04T23:43:09.996Z,4.33
2018-07-04T23:45:49.620Z,2.75
2018-07-04T23:48:29.109Z,3.58
2018-07-04T23:51:08.677Z,4.22
2018-07-04T23:53:48.256Z,4.92
2018-07-04T23:56:27.808Z,4.78
2018-07-04T23:59:07.483Z,3.83
